^^
Station Historical Data
Daily Summary for September 9, 2017 Units:  Both    English   Metric
« Previous Day
Next Day »
Daily Weekly Monthly Yearly Custom
  High: Low: Average:
Temperature: TemperatureF °F /  -17.8 °C 60.4 °F /  15.8 °C 75.3 °F /  24.1 °C
Dew Point: DewpointF °F /  -17.8 °C 17.1 °F /  -8.3 °C 29.5 °F /  -1.4 °C
Humidity: Humidity% 12% 20%
Wind Speed: WindSpeedMPHmph /  0km/h - 1mph /  1.6km/h
Wind Gust: WindSpeedGustMPHmph /  0km/h - -
Wind- - SSW
Pressure: PressureIn in /  0 hPa 30.12 in /  1019.9 hPa -
Precipitation: 0.00 in /  0 mm    
Historical Graphs
 
 
Tabular Data for September 9, 2017
Time Temperature Dew Point Pressure Wind Wind Speed Wind Gust Humidity Rainfall Rate (Hourly) solar Conditions
TemperatureF °F /  -17.8 °C DewpointF °F /  -17.8 °C PressureInin /  0hPa Calm     Humidity% HourlyPrecipInin /  0mm SolarRadiationWatts/m^2 W/m2 Conditions
00:00 72.3 °F /  22.4 °C 30.2 °F /  -1 °C 30.27in /  1024.9hPa SE 4.0mph /  6.4km/h 5.0mph /  8km/h 21% 0.00in /  0mm 0.0 W/m2
00:06 72.3 °F /  22.4 °C 30.2 °F /  -1 °C 30.27in /  1024.9hPa SSE 6.0mph /  9.7km/h 6.0mph /  9.7km/h 21% 0.00in /  0mm 0.0 W/m2
00:12 72.1 °F /  22.3 °C 30.0 °F /  -1.1 °C 30.27in /  1024.9hPa SE 4.9mph /  7.9km/h 6.0mph /  9.7km/h 21% 0.00in /  0mm 0.0 W/m2
00:18 72.1 °F /  22.3 °C 30.0 °F /  -1.1 °C 30.27in /  1024.9hPa SSW 0.9mph /  1.4km/h 3.0mph /  4.8km/h 21% 0.00in /  0mm 0.0 W/m2
00:24 72.0 °F /  22.2 °C 29.8 °F /  -1.2 °C 30.27in /  1024.9hPa South 0.9mph /  1.4km/h 5.0mph /  8km/h 21% 0.00in /  0mm 0.0 W/m2
00:30 71.8 °F /  22.1 °C 30.9 °F /  -0.6 °C 30.27in /  1024.9hPa SSE 0.9mph /  1.4km/h 1.0mph /  1.6km/h 22% 0.00in /  0mm 0.0 W/m2
00:36 71.4 °F /  21.9 °C 30.6 °F /  -0.8 °C 30.27in /  1024.9hPa SSW 0.9mph /  1.4km/h 5.0mph /  8km/h 22% 0.00in /  0mm 0.0 W/m2
00:42 71.4 °F /  21.9 °C 30.6 °F /  -0.8 °C 30.27in /  1024.9hPa Calm   4.0mph /  6.4km/h 22% 0.00in /  0mm 0.0 W/m2
00:48 71.2 °F /  21.8 °C 30.4 °F /  -0.9 °C 30.27in /  1024.9hPa Calm   1.0mph /  1.6km/h 22% 0.00in /  0mm 0.0 W/m2
00:54 71.1 °F /  21.7 °C 30.2 °F /  -1 °C 30.27in /  1024.9hPa Calm     22% 0.00in /  0mm 0.0 W/m2
01:00 70.9 °F /  21.6 °C 31.3 °F /  -0.4 °C 30.27in /  1024.9hPa Calm     23% 0.00in /  0mm 0.0 W/m2
01:06 70.5 °F /  21.4 °C 30.9 °F /  -0.6 °C 30.26in /  1024.6hPa Calm   1.0mph /  1.6km/h 23% 0.00in /  0mm 0.0 W/m2
01:12 70.2 °F /  21.2 °C 30.6 °F /  -0.8 °C 30.26in /  1024.6hPa Calm     23% 0.00in /  0mm 0.0 W/m2
01:18 70.2 °F /  21.2 °C 30.6 °F /  -0.8 °C 30.26in /  1024.6hPa Calm   4.0mph /  6.4km/h 23% 0.00in /  0mm 0.0 W/m2
01:25 70.2 °F /  21.2 °C 30.6 °F /  -0.8 °C 30.26in /  1024.6hPa Calm   4.0mph /  6.4km/h 23% 0.00in /  0mm 0.0 W/m2
01:31 70.3 °F /  21.3 °C 30.7 °F /  -0.7 °C 30.26in /  1024.6hPa SSE 2.0mph /  3.2km/h 5.0mph /  8km/h 23% 0.00in /  0mm 0.0 W/m2
01:37 70.3 °F /  21.3 °C 30.7 °F /  -0.7 °C 30.26in /  1024.6hPa SE 0.9mph /  1.4km/h 6.0mph /  9.7km/h 23% 0.00in /  0mm 0.0 W/m2
01:43 70.3 °F /  21.3 °C 30.7 °F /  -0.7 °C 30.25in /  1024.3hPa SE 4.0mph /  6.4km/h 5.0mph /  8km/h 23% 0.00in /  0mm 0.0 W/m2
01:49 70.3 °F /  21.3 °C 30.7 °F /  -0.7 °C 30.25in /  1024.3hPa Calm   3.0mph /  4.8km/h 23% 0.00in /  0mm 0.0 W/m2
01:55 70.5 °F /  21.4 °C 30.9 °F /  -0.6 °C 30.25in /  1024.3hPa Calm   1.0mph /  1.6km/h 23% 0.00in /  0mm 0.0 W/m2
02:01 70.3 °F /  21.3 °C 30.7 °F /  -0.7 °C 30.25in /  1024.3hPa Calm   2.0mph /  3.2km/h 23% 0.00in /  0mm 0.0 W/m2
02:08 70.2 °F /  21.2 °C 30.6 °F /  -0.8 °C 30.25in /  1024.3hPa SSE 0.9mph /  1.4km/h 2.0mph /  3.2km/h 23% 0.00in /  0mm 0.0 W/m2
02:14 70.0 °F /  21.1 °C 30.6 °F /  -0.8 °C 30.25in /  1024.3hPa Calm     23% 0.00in /  0mm 0.0 W/m2
02:20 69.6 °F /  20.9 °C 31.3 °F /  -0.4 °C 30.25in /  1024.3hPa Calm     24% 0.00in /  0mm 0.0 W/m2
02:26 69.4 °F /  20.8 °C 31.1 °F /  -0.5 °C 30.25in /  1024.3hPa Calm     24% 0.00in /  0mm 0.0 W/m2
02:32 69.1 °F /  20.6 °C 31.8 °F /  -0.1 °C 30.25in /  1024.3hPa Calm     25% 0.00in /  0mm 0.0 W/m2
02:38 68.7 °F /  20.4 °C 31.5 °F /  -0.3 °C 30.24in /  1023.9hPa Calm   1.0mph /  1.6km/h 25% 0.00in /  0mm 0.0 W/m2
02:44 68.4 °F /  20.2 °C 31.1 °F /  -0.5 °C 30.24in /  1023.9hPa Calm     25% 0.00in /  0mm 0.0 W/m2
02:50 68.2 °F /  20.1 °C 32.0 °F /  0 °C 30.24in /  1023.9hPa Calm     26% 0.00in /  0mm 0.0 W/m2
02:56 68.0 °F /  20 °C 31.8 °F /  -0.1 °C 30.24in /  1023.9hPa Calm     26% 0.00in /  0mm 0.0 W/m2
03:03 67.8 °F /  19.9 °C 31.6 °F /  -0.2 °C 30.24in /  1023.9hPa Calm     26% 0.00in /  0mm 0.0 W/m2
03:09 67.5 °F /  19.7 °C 32.4 °F /  0.2 °C 30.24in /  1023.9hPa Calm     27% 0.00in /  0mm 0.0 W/m2
03:15 67.3 °F /  19.6 °C 32.2 °F /  0.1 °C 30.23in /  1023.6hPa Calm     27% 0.00in /  0mm 0.0 W/m2
03:21 66.9 °F /  19.4 °C 31.8 °F /  -0.1 °C 30.23in /  1023.6hPa Calm     27% 0.00in /  0mm 0.0 W/m2
03:27 66.6 °F /  19.2 °C 31.5 °F /  -0.3 °C 30.23in /  1023.6hPa Calm     27% 0.00in /  0mm 0.0 W/m2
03:33 66.4 °F /  19.1 °C 31.5 °F /  -0.3 °C 30.22in /  1023.2hPa Calm     27% 0.00in /  0mm 0.0 W/m2
03:39 66.0 °F /  18.9 °C 32.0 °F /  0 °C 30.22in /  1023.2hPa Calm     28% 0.00in /  0mm 0.0 W/m2
03:45 65.8 °F /  18.8 °C 31.8 °F /  -0.1 °C 30.22in /  1023.2hPa Calm     28% 0.00in /  0mm 0.0 W/m2
03:51 65.7 °F /  18.7 °C 31.6 °F /  -0.2 °C 30.22in /  1023.2hPa Calm     28% 0.00in /  0mm 0.0 W/m2
03:57 65.5 °F /  18.6 °C 31.5 °F /  -0.3 °C 30.22in /  1023.2hPa Calm     28% 0.00in /  0mm 0.0 W/m2
04:03 65.5 °F /  18.6 °C 31.5 °F /  -0.3 °C 30.22in /  1023.2hPa Calm     28% 0.00in /  0mm 0.0 W/m2
04:09 65.3 °F /  18.5 °C 31.3 °F /  -0.4 °C 30.22in /  1023.2hPa Calm     28% 0.00in /  0mm 0.0 W/m2
04:16 65.1 °F /  18.4 °C 31.3 °F /  -0.4 °C 30.22in /  1023.2hPa Calm     28% 0.00in /  0mm 0.0 W/m2
04:22 64.9 °F /  18.3 °C 31.1 °F /  -0.5 °C 30.22in /  1023.2hPa Calm     28% 0.00in /  0mm 0.0 W/m2
04:28 64.8 °F /  18.2 °C 31.8 °F /  -0.1 °C 30.21in /  1022.9hPa Calm   1.0mph /  1.6km/h 29% 0.00in /  0mm 0.0 W/m2
04:34 64.6 °F /  18.1 °C 31.6 °F /  -0.2 °C 30.21in /  1022.9hPa Calm   1.0mph /  1.6km/h 29% 0.00in /  0mm 0.0 W/m2
04:40 64.4 °F /  18 °C 31.5 °F /  -0.3 °C 30.21in /  1022.9hPa Calm     29% 0.00in /  0mm 0.0 W/m2
04:46 64.2 °F /  17.9 °C 32.2 °F /  0.1 °C 30.21in /  1022.9hPa Calm     30% 0.00in /  0mm 0.0 W/m2
04:54 63.9 °F /  17.7 °C 30.9 °F /  -0.6 °C 30.21in /  1022.9hPa Calm     29% 0.00in /  0mm 0.0 W/m2
05:00 63.7 °F /  17.6 °C 30.7 °F /  -0.7 °C 30.21in /  1022.9hPa Calm     29% 0.00in /  0mm 0.0 W/m2
05:06 63.3 °F /  17.4 °C 31.3 °F /  -0.4 °C 30.22in /  1023.2hPa Calm     30% 0.00in /  0mm 0.0 W/m2
05:18 62.8 °F /  17.1 °C 30.9 °F /  -0.6 °C 30.22in /  1023.2hPa Calm     30% 0.00in /  0mm 0.0 W/m2
05:25 62.4 °F /  16.9 °C 31.5 °F /  -0.3 °C 30.22in /  1023.2hPa Calm     31% 0.00in /  0mm 0.0 W/m2
05:31 62.2 °F /  16.8 °C 31.3 °F /  -0.4 °C 30.22in /  1023.2hPa Calm     31% 0.00in /  0mm 0.0 W/m2
05:35 62.2 °F /  16.8 °C 31.3 °F /  -0.4 °C 30.22in /  1023.2hPa Calm   1.0mph /  1.6km/h 31% 0.00in /  0mm 0.0 W/m2
05:39 62.1 °F /  16.7 °C 31.1 °F /  -0.5 °C 30.22in /  1023.2hPa Calm   1.0mph /  1.6km/h 31% 0.00in /  0mm 0.0 W/m2
05:45 62.1 °F /  16.7 °C 31.1 °F /  -0.5 °C 30.22in /  1023.2hPa Calm   1.0mph /  1.6km/h 31% 0.00in /  0mm 0.0 W/m2
05:53 61.9 °F /  16.6 °C 30.9 °F /  -0.6 °C 30.22in /  1023.2hPa Calm     31% 0.00in /  0mm 0.0 W/m2
05:59 61.9 °F /  16.6 °C 30.9 °F /  -0.6 °C 30.22in /  1023.2hPa Calm     31% 0.00in /  0mm 0.0 W/m2
06:05 61.9 °F /  16.6 °C 30.9 °F /  -0.6 °C 30.22in /  1023.2hPa Calm     31% 0.00in /  0mm 0.0 W/m2
06:12 61.7 °F /  16.5 °C 31.5 °F /  -0.3 °C 30.22in /  1023.2hPa Calm     32% 0.00in /  0mm 0.0 W/m2
06:18 61.5 °F /  16.4 °C 31.5 °F /  -0.3 °C 30.22in /  1023.2hPa Calm     32% 0.00in /  0mm 0.0 W/m2
06:24 61.2 °F /  16.2 °C 31.1 °F /  -0.5 °C 30.22in /  1023.2hPa Calm     32% 0.00in /  0mm 0.0 W/m2
06:30 61.0 °F /  16.1 °C 31.6 °F /  -0.2 °C 30.22in /  1023.2hPa Calm     33% 0.00in /  0mm 0.0 W/m2
06:36 60.6 °F /  15.9 °C 31.3 °F /  -0.4 °C 30.22in /  1023.2hPa Calm   2.0mph /  3.2km/h 33% 0.00in /  0mm 0.0 W/m2
06:42 60.4 °F /  15.8 °C 30.4 °F /  -0.9 °C 30.23in /  1023.6hPa ENE 4.9mph /  7.9km/h 5.0mph /  8km/h 32% 0.00in /  0mm 0.0 W/m2
06:48 60.6 °F /  15.9 °C 30.6 °F /  -0.8 °C 30.23in /  1023.6hPa Calm     32% 0.00in /  0mm 0.0 W/m2
06:54 60.6 °F /  15.9 °C 30.6 °F /  -0.8 °C 30.23in /  1023.6hPa Calm   2.0mph /  3.2km/h 32% 0.00in /  0mm 0.0 W/m2
07:00 60.6 °F /  15.9 °C 30.6 °F /  -0.8 °C 30.23in /  1023.6hPa East 0.9mph /  1.4km/h 2.0mph /  3.2km/h 32% 0.00in /  0mm 0.0 W/m2
07:07 60.6 °F /  15.9 °C 30.6 °F /  -0.8 °C 30.23in /  1023.6hPa ESE 0.9mph /  1.4km/h 2.0mph /  3.2km/h 32% 0.00in /  0mm 9.0 W/m2
07:13 60.6 °F /  15.9 °C 30.6 °F /  -0.8 °C 30.24in /  1023.9hPa Calm   3.0mph /  4.8km/h 32% 0.00in /  0mm 16.0 W/m2
07:19 60.8 °F /  16 °C 30.7 °F /  -0.7 °C 30.24in /  1023.9hPa East 2.0mph /  3.2km/h 2.0mph /  3.2km/h 32% 0.00in /  0mm 25.0 W/m2
07:25 61.0 °F /  16.1 °C 30.9 °F /  -0.6 °C 30.24in /  1023.9hPa Calm   2.0mph /  3.2km/h 32% 0.00in /  0mm 21.0 W/m2
07:31 61.2 °F /  16.2 °C 31.1 °F /  -0.5 °C 30.24in /  1023.9hPa Calm   1.0mph /  1.6km/h 32% 0.00in /  0mm 25.0 W/m2
07:38 61.2 °F /  16.2 °C 31.1 °F /  -0.5 °C 30.25in /  1024.3hPa Calm   1.0mph /  1.6km/h 32% 0.00in /  0mm 32.0 W/m2
07:44 61.2 °F /  16.2 °C 31.1 °F /  -0.5 °C 30.25in /  1024.3hPa Calm   3.0mph /  4.8km/h 32% 0.00in /  0mm 40.0 W/m2
07:50 61.3 °F /  16.3 °C 31.3 °F /  -0.4 °C 30.25in /  1024.3hPa NE 0.9mph /  1.4km/h 1.0mph /  1.6km/h 32% 0.00in /  0mm 49.0 W/m2
07:56 61.5 °F /  16.4 °C 31.5 °F /  -0.3 °C 30.25in /  1024.3hPa NE 0.9mph /  1.4km/h 3.0mph /  4.8km/h 32% 0.00in /  0mm 56.0 W/m2
08:02 61.9 °F /  16.6 °C 31.6 °F /  -0.2 °C 30.25in /  1024.3hPa Calm   1.0mph /  1.6km/h 32% 0.00in /  0mm 62.0 W/m2
08:08 62.2 °F /  16.8 °C 32.0 °F /  0 °C 30.25in /  1024.3hPa Calm   1.0mph /  1.6km/h 32% 0.00in /  0mm 77.0 W/m2
08:14 63.0 °F /  17.2 °C 31.8 °F /  -0.1 °C 30.26in /  1024.6hPa ENE 0.9mph /  1.4km/h 3.0mph /  4.8km/h 31% 0.00in /  0mm 127.0 W/m2
08:20 64.2 °F /  17.9 °C 32.2 °F /  0.1 °C 30.26in /  1024.6hPa NE 2.0mph /  3.2km/h 4.0mph /  6.4km/h 30% 0.00in /  0mm 141.0 W/m2
08:27 65.8 °F /  18.8 °C 31.8 °F /  -0.1 °C 30.26in /  1024.6hPa Calm   5.0mph /  8km/h 28% 0.00in /  0mm 125.0 W/m2
08:33 67.6 °F /  19.8 °C 32.5 °F /  0.3 °C 30.26in /  1024.6hPa ENE 0.9mph /  1.4km/h 6.0mph /  9.7km/h 27% 0.00in /  0mm 123.0 W/m2
08:39 68.7 °F /  20.4 °C 31.5 °F /  -0.3 °C 30.26in /  1024.6hPa Calm   5.0mph /  8km/h 25% 0.00in /  0mm 113.0 W/m2
08:45 69.6 °F /  20.9 °C 32.2 °F /  0.1 °C 30.26in /  1024.6hPa NE 2.9mph /  4.7km/h 5.0mph /  8km/h 25% 0.00in /  0mm 113.0 W/m2
08:51 70.5 °F /  21.4 °C 32.0 °F /  0 °C 30.26in /  1024.6hPa Calm   4.0mph /  6.4km/h 24% 0.00in /  0mm 120.0 W/m2
08:57 71.2 °F /  21.8 °C 32.5 °F /  0.3 °C 30.26in /  1024.6hPa Calm   3.0mph /  4.8km/h 24% 0.00in /  0mm 125.0 W/m2
09:03 72.0 °F /  22.2 °C 32.2 °F /  0.1 °C 30.26in /  1024.6hPa Calm   3.0mph /  4.8km/h 23% 0.00in /  0mm 141.0 W/m2
09:10 72.7 °F /  22.6 °C 31.6 °F /  -0.2 °C 30.26in /  1024.6hPa ENE 0.9mph /  1.4km/h 4.0mph /  6.4km/h 22% 0.00in /  0mm 169.0 W/m2
09:16 73.4 °F /  23 °C 31.1 °F /  -0.5 °C 30.26in /  1024.6hPa Calm   4.0mph /  6.4km/h 21% 0.00in /  0mm 213.0 W/m2
09:22 74.1 °F /  23.4 °C 31.6 °F /  -0.2 °C 30.26in /  1024.6hPa East 0.9mph /  1.4km/h 4.0mph /  6.4km/h 21% 0.00in /  0mm 262.0 W/m2
09:28 75.0 °F /  23.9 °C 31.3 °F /  -0.4 °C 30.26in /  1024.6hPa Calm   4.0mph /  6.4km/h 20% 0.00in /  0mm 274.0 W/m2
09:34 75.7 °F /  24.3 °C 31.8 °F /  -0.1 °C 30.26in /  1024.6hPa East 2.0mph /  3.2km/h 4.0mph /  6.4km/h 20% 0.00in /  0mm 267.0 W/m2
09:40 76.3 °F /  24.6 °C 30.9 °F /  -0.6 °C 30.26in /  1024.6hPa NNW 2.9mph /  4.7km/h 4.0mph /  6.4km/h 19% 0.00in /  0mm 255.0 W/m2
09:46 76.6 °F /  24.8 °C 31.3 °F /  -0.4 °C 30.26in /  1024.6hPa NW 2.9mph /  4.7km/h 5.0mph /  8km/h 19% 0.00in /  0mm 297.0 W/m2
09:52 77.2 °F /  25.1 °C 30.4 °F /  -0.9 °C 30.26in /  1024.6hPa NNE 0.9mph /  1.4km/h 2.0mph /  3.2km/h 18% 0.00in /  0mm 396.0 W/m2
09:58 77.9 °F /  25.5 °C 29.7 °F /  -1.3 °C 30.26in /  1024.6hPa Calm     17% 0.00in /  0mm 262.0 W/m2
10:05 78.3 °F /  25.7 °C 31.3 °F /  -0.4 °C 30.26in /  1024.6hPa Calm   1.0mph /  1.6km/h 18% 0.00in /  0mm 288.0 W/m2
10:11 78.6 °F /  25.9 °C 31.6 °F /  -0.2 °C 30.26in /  1024.6hPa Calm   2.0mph /  3.2km/h 18% 0.00in /  0mm 246.0 W/m2
10:17 78.8 °F /  26 °C 30.4 °F /  -0.9 °C 30.26in /  1024.6hPa Calm   2.0mph /  3.2km/h 17% 0.00in /  0mm 568.0 W/m2
10:23 79.2 °F /  26.2 °C 30.6 °F /  -0.8 °C 30.26in /  1024.6hPa Calm     17% 0.00in /  0mm 292.0 W/m2
10:29 79.5 °F /  26.4 °C 30.9 °F /  -0.6 °C 30.26in /  1024.6hPa WSW 2.0mph /  3.2km/h 3.0mph /  4.8km/h 17% 0.00in /  0mm 371.0 W/m2
10:35 79.9 °F /  26.6 °C 29.7 °F /  -1.3 °C 30.25in /  1024.3hPa Calm   1.0mph /  1.6km/h 16% 0.00in /  0mm 626.0 W/m2
10:41 80.4 °F /  26.9 °C 30.2 °F /  -1 °C 30.25in /  1024.3hPa Calm   1.0mph /  1.6km/h 16% 0.00in /  0mm 629.0 W/m2
10:48 81.3 °F /  27.4 °C 29.3 °F /  -1.5 °C 30.25in /  1024.3hPa Calm   4.0mph /  6.4km/h 15% 0.00in /  0mm 643.0 W/m2
10:56 82.2 °F /  27.9 °C 30.0 °F /  -1.1 °C 30.25in /  1024.3hPa Calm   1.0mph /  1.6km/h 15% 0.00in /  0mm 643.0 W/m2
11:02 83.1 °F /  28.4 °C 30.7 °F /  -0.7 °C 30.25in /  1024.3hPa NW 2.0mph /  3.2km/h 5.0mph /  8km/h 15% 0.00in /  0mm 661.0 W/m2
11:07 83.5 °F /  28.6 °C 29.3 °F /  -1.5 °C 30.24in /  1023.9hPa Calm   2.0mph /  3.2km/h 14% 0.00in /  0mm 682.0 W/m2
11:15 83.7 °F /  28.7 °C 29.5 °F /  -1.4 °C 30.24in /  1023.9hPa North 2.9mph /  4.7km/h 6.0mph /  9.7km/h 14% 0.00in /  0mm 694.0 W/m2
11:20 84.0 °F /  28.9 °C 29.7 °F /  -1.3 °C 30.24in /  1023.9hPa NW 0.9mph /  1.4km/h 6.0mph /  9.7km/h 14% 0.00in /  0mm 710.0 W/m2
11:26 84.4 °F /  29.1 °C 28.2 °F /  -2.1 °C 30.23in /  1023.6hPa NE 4.0mph /  6.4km/h 7.0mph /  11.3km/h 13% 0.00in /  0mm 712.0 W/m2
11:33 84.6 °F /  29.2 °C 30.2 °F /  -1 °C 30.23in /  1023.6hPa NNW 4.9mph /  7.9km/h 7.0mph /  11.3km/h 14% 0.00in /  0mm 724.0 W/m2
11:39 84.7 °F /  29.3 °C 28.4 °F /  -2 °C 30.22in /  1023.2hPa Calm   7.0mph /  11.3km/h 13% 0.00in /  0mm 737.0 W/m2
11:45 85.3 °F /  29.6 °C 28.9 °F /  -1.7 °C 30.22in /  1023.2hPa North 6.9mph /  11.1km/h 13.0mph /  20.9km/h 13% 0.00in /  0mm 742.0 W/m2
11:51 84.9 °F /  29.4 °C 28.6 °F /  -1.9 °C 30.22in /  1023.2hPa NNE 4.0mph /  6.4km/h 11.0mph /  17.7km/h 13% 0.00in /  0mm 744.0 W/m2
11:57 84.9 °F /  29.4 °C 28.6 °F /  -1.9 °C 30.21in /  1022.9hPa North 6.0mph /  9.7km/h 10.0mph /  16.1km/h 13% 0.00in /  0mm 752.0 W/m2
12:03 85.3 °F /  29.6 °C 28.9 °F /  -1.7 °C 30.21in /  1022.9hPa NW 2.0mph /  3.2km/h 9.0mph /  14.5km/h 13% 0.00in /  0mm 763.0 W/m2
12:09 85.5 °F /  29.7 °C 28.9 °F /  -1.7 °C 30.20in /  1022.6hPa NNE 4.0mph /  6.4km/h 8.0mph /  12.9km/h 13% 0.00in /  0mm 773.0 W/m2
12:16 86.0 °F /  30 °C 27.5 °F /  -2.5 °C 30.20in /  1022.6hPa NNW 2.9mph /  4.7km/h 12.0mph /  19.3km/h 12% 0.00in /  0mm 770.0 W/m2
12:22 86.2 °F /  30.1 °C 27.7 °F /  -2.4 °C 30.20in /  1022.6hPa WNW 0.9mph /  1.4km/h 8.0mph /  12.9km/h 12% 0.00in /  0mm 773.0 W/m2
12:28 86.2 °F /  30.1 °C 27.7 °F /  -2.4 °C 30.20in /  1022.6hPa NNW 4.0mph /  6.4km/h 6.0mph /  9.7km/h 12% 0.00in /  0mm 773.0 W/m2
12:34 86.4 °F /  30.2 °C 29.7 °F /  -1.3 °C 30.20in /  1022.6hPa West 2.0mph /  3.2km/h 5.0mph /  8km/h 13% 0.00in /  0mm 777.0 W/m2
12:40 87.1 °F /  30.6 °C 28.4 °F /  -2 °C 30.19in /  1022.2hPa Calm   8.0mph /  12.9km/h 12% 0.00in /  0mm 789.0 W/m2
12:46 87.4 °F /  30.8 °C 28.6 °F /  -1.9 °C 30.19in /  1022.2hPa NNW 4.0mph /  6.4km/h 11.0mph /  17.7km/h 12% 0.00in /  0mm 777.0 W/m2
12:52 87.3 °F /  30.7 °C 28.4 °F /  -2 °C 30.19in /  1022.2hPa North 4.9mph /  7.9km/h 7.0mph /  11.3km/h 12% 0.00in /  0mm 759.0 W/m2
12:59 87.1 °F /  30.6 °C 28.4 °F /  -2 °C 30.19in /  1022.2hPa WSW 0.9mph /  1.4km/h 5.0mph /  8km/h 12% 0.00in /  0mm 773.0 W/m2
13:05 86.7 °F /  30.4 °C 28.0 °F /  -2.2 °C 30.18in /  1021.9hPa NNW 2.9mph /  4.7km/h 9.0mph /  14.5km/h 12% 0.00in /  0mm 343.0 W/m2
13:11 86.5 °F /  30.3 °C 29.8 °F /  -1.2 °C 30.18in /  1021.9hPa NNW 8.1mph /  13km/h 8.1mph /  13km/h 13% 0.00in /  0mm 814.0 W/m2
13:17 87.3 °F /  30.7 °C 28.4 °F /  -2 °C 30.18in /  1021.9hPa NW 0.9mph /  1.4km/h 10.0mph /  16.1km/h 12% 0.00in /  0mm 731.0 W/m2
13:23 86.9 °F /  30.5 °C 28.2 °F /  -2.1 °C 30.17in /  1021.6hPa NNW 4.9mph /  7.9km/h 8.0mph /  12.9km/h 12% 0.00in /  0mm 406.0 W/m2
13:29 86.2 °F /  30.1 °C 29.7 °F /  -1.3 °C 30.17in /  1021.6hPa North 6.9mph /  11.1km/h 13.0mph /  20.9km/h 13% 0.00in /  0mm 795.0 W/m2
13:35 86.2 °F /  30.1 °C 29.7 °F /  -1.3 °C 30.17in /  1021.6hPa NNW 6.0mph /  9.7km/h 6.0mph /  9.7km/h 13% 0.00in /  0mm 768.0 W/m2
13:40 86.5 °F /  30.3 °C 27.9 °F /  -2.3 °C 30.17in /  1021.6hPa North 6.0mph /  9.7km/h 7.0mph /  11.3km/h 12% 0.00in /  0mm 775.0 W/m2
13:46 87.1 °F /  30.6 °C 30.2 °F /  -1 °C 30.17in /  1021.6hPa NE 2.0mph /  3.2km/h 7.0mph /  11.3km/h 13% 0.00in /  0mm 784.0 W/m2
13:52 87.6 °F /  30.9 °C 30.7 °F /  -0.7 °C 30.17in /  1021.6hPa WNW 2.9mph /  4.7km/h 7.0mph /  11.3km/h 13% 0.00in /  0mm 754.0 W/m2
13:58 87.4 °F /  30.8 °C 28.6 °F /  -1.9 °C 30.17in /  1021.6hPa WNW 4.0mph /  6.4km/h 8.0mph /  12.9km/h 12% 0.00in /  0mm 670.0 W/m2
14:04 87.3 °F /  30.7 °C 30.4 °F /  -0.9 °C 30.16in /  1021.2hPa West 8.1mph /  13km/h 8.1mph /  13km/h 13% 0.00in /  0mm 731.0 W/m2
14:10 86.7 °F /  30.4 °C 30.0 °F /  -1.1 °C 30.16in /  1021.2hPa NW 0.9mph /  1.4km/h 3.0mph /  4.8km/h 13% 0.00in /  0mm 724.0 W/m2
14:16 87.3 °F /  30.7 °C 30.4 °F /  -0.9 °C 30.16in /  1021.2hPa NNW 2.9mph /  4.7km/h 11.0mph /  17.7km/h 13% 0.00in /  0mm 705.0 W/m2
14:23 87.4 °F /  30.8 °C 30.6 °F /  -0.8 °C 30.16in /  1021.2hPa Calm   3.0mph /  4.8km/h 13% 0.00in /  0mm 703.0 W/m2
14:29 88.0 °F /  31.1 °C 30.9 °F /  -0.6 °C 30.15in /  1020.9hPa NNW 2.0mph /  3.2km/h 8.0mph /  12.9km/h 13% 0.00in /  0mm 677.0 W/m2
14:35 88.2 °F /  31.2 °C 31.1 °F /  -0.5 °C 30.15in /  1020.9hPa NW 0.9mph /  1.4km/h 9.0mph /  14.5km/h 13% 0.00in /  0mm 675.0 W/m2
14:41 88.3 °F /  31.3 °C 29.3 °F /  -1.5 °C 30.15in /  1020.9hPa NNW 0.9mph /  1.4km/h 4.0mph /  6.4km/h 12% 0.00in /  0mm 647.0 W/m2
14:47 87.8 °F /  31 °C 28.9 °F /  -1.7 °C 30.14in /  1020.5hPa NE 2.0mph /  3.2km/h 4.0mph /  6.4km/h 12% 0.00in /  0mm 185.0 W/m2
14:53 87.1 °F /  30.6 °C 30.2 °F /  -1 °C 30.14in /  1020.5hPa SE 6.0mph /  9.7km/h 6.0mph /  9.7km/h 13% 0.00in /  0mm 640.0 W/m2
14:59 87.3 °F /  30.7 °C 30.4 °F /  -0.9 °C 30.14in /  1020.5hPa Calm   3.0mph /  4.8km/h 13% 0.00in /  0mm 622.0 W/m2
15:05 87.4 °F /  30.8 °C 30.6 °F /  -0.8 °C 30.14in /  1020.5hPa WNW 0.9mph /  1.4km/h 11.0mph /  17.7km/h 13% 0.00in /  0mm 622.0 W/m2
15:12 88.0 °F /  31.1 °C 28.9 °F /  -1.7 °C 30.14in /  1020.5hPa WNW 0.9mph /  1.4km/h 6.0mph /  9.7km/h 12% 0.00in /  0mm 608.0 W/m2
15:18 88.3 °F /  31.3 °C 29.3 °F /  -1.5 °C 30.13in /  1020.2hPa WNW 2.0mph /  3.2km/h 4.0mph /  6.4km/h 12% 0.00in /  0mm 585.0 W/m2
15:24 88.5 °F /  31.4 °C 29.5 °F /  -1.4 °C 30.14in /  1020.5hPa NW 2.0mph /  3.2km/h 3.0mph /  4.8km/h 12% 0.00in /  0mm 578.0 W/m2
15:30 88.7 °F /  31.5 °C 29.7 °F /  -1.3 °C 30.13in /  1020.2hPa SE 0.9mph /  1.4km/h 2.0mph /  3.2km/h 12% 0.00in /  0mm 566.0 W/m2
15:36 88.5 °F /  31.4 °C 29.5 °F /  -1.4 °C 30.13in /  1020.2hPa Calm   2.0mph /  3.2km/h 12% 0.00in /  0mm 548.0 W/m2
15:42 88.7 °F /  31.5 °C 29.7 °F /  -1.3 °C 30.12in /  1019.9hPa Calm   8.0mph /  12.9km/h 12% 0.00in /  0mm 524.0 W/m2
15:48 88.3 °F /  31.3 °C 29.3 °F /  -1.5 °C 30.12in /  1019.9hPa NE 0.9mph /  1.4km/h 5.0mph /  8km/h 12% 0.00in /  0mm 496.0 W/m2
15:54 88.3 °F /  31.3 °C 29.3 °F /  -1.5 °C 30.12in /  1019.9hPa Calm   5.0mph /  8km/h 12% 0.00in /  0mm 468.0 W/m2
16:01 88.5 °F /  31.4 °C 29.5 °F /  -1.4 °C 30.12in /  1019.9hPa WSW 6.9mph /  11.1km/h 9.0mph /  14.5km/h 12% 0.00in /  0mm 455.0 W/m2
16:07 88.2 °F /  31.2 °C 29.1 °F /  -1.6 °C 30.12in /  1019.9hPa WSW 6.9mph /  11.1km/h 7.0mph /  11.3km/h 12% 0.00in /  0mm 446.0 W/m2
16:13 88.0 °F /  31.1 °C 28.9 °F /  -1.7 °C 30.12in /  1019.9hPa SW 2.0mph /  3.2km/h 5.0mph /  8km/h 12% 0.00in /  0mm 399.0 W/m2
16:21 87.3 °F /  30.7 °C 28.4 °F /  -2 °C 30.12in /  1019.9hPa WNW 0.9mph /  1.4km/h 2.0mph /  3.2km/h 12% 0.00in /  0mm 380.0 W/m2
16:27 87.1 °F /  30.6 °C 28.4 °F /  -2 °C 30.12in /  1019.9hPa West 0.9mph /  1.4km/h 5.0mph /  8km/h 12% 0.00in /  0mm 369.0 W/m2
16:33 87.1 °F /  30.6 °C 28.4 °F /  -2 °C 30.12in /  1019.9hPa Calm   6.0mph /  9.7km/h 12% 0.00in /  0mm 348.0 W/m2
16:42 87.3 °F /  30.7 °C 28.4 °F /  -2 °C 30.12in /  1019.9hPa Calm   2.0mph /  3.2km/h 12% 0.00in /  0mm 313.0 W/m2
16:48 87.6 °F /  30.9 °C 30.7 °F /  -0.7 °C 30.12in /  1019.9hPa West 0.9mph /  1.4km/h 3.0mph /  4.8km/h 13% 0.00in /  0mm 294.0 W/m2
16:54 87.3 °F /  30.7 °C 28.4 °F /  -2 °C 30.12in /  1019.9hPa Calm   3.0mph /  4.8km/h 12% 0.00in /  0mm 274.0 W/m2
17:00 87.1 °F /  30.6 °C 28.4 °F /  -2 °C 30.12in /  1019.9hPa WNW 0.9mph /  1.4km/h 7.0mph /  11.3km/h 12% 0.00in /  0mm 258.0 W/m2
17:06 86.9 °F /  30.5 °C 30.2 °F /  -1 °C 30.12in /  1019.9hPa NNE 6.0mph /  9.7km/h 6.0mph /  9.7km/h 13% 0.00in /  0mm 237.0 W/m2
17:12 86.7 °F /  30.4 °C 30.0 °F /  -1.1 °C 30.12in /  1019.9hPa Calm   6.0mph /  9.7km/h 13% 0.00in /  0mm 221.0 W/m2
17:18 86.7 °F /  30.4 °C 30.0 °F /  -1.1 °C 30.13in /  1020.2hPa West 0.9mph /  1.4km/h 3.0mph /  4.8km/h 13% 0.00in /  0mm 192.0 W/m2
17:24 86.7 °F /  30.4 °C 30.0 °F /  -1.1 °C 30.12in /  1019.9hPa WNW 2.9mph /  4.7km/h 7.0mph /  11.3km/h 13% 0.00in /  0mm 171.0 W/m2
17:31 86.4 °F /  30.2 °C 29.7 °F /  -1.3 °C 30.13in /  1020.2hPa Calm   2.0mph /  3.2km/h 13% 0.00in /  0mm 151.0 W/m2
17:37 86.4 °F /  30.2 °C 29.7 °F /  -1.3 °C 30.13in /  1020.2hPa Calm   4.0mph /  6.4km/h 13% 0.00in /  0mm 134.0 W/m2
17:43 86.2 °F /  30.1 °C 29.7 °F /  -1.3 °C 30.13in /  1020.2hPa Calm   4.0mph /  6.4km/h 13% 0.00in /  0mm 118.0 W/m2
17:49 86.0 °F /  30 °C 29.5 °F /  -1.4 °C 30.13in /  1020.2hPa Calm   1.0mph /  1.6km/h 13% 0.00in /  0mm 98.0 W/m2
17:55 85.6 °F /  29.8 °C 29.1 °F /  -1.6 °C 30.13in /  1020.2hPa NNW 2.9mph /  4.7km/h 4.0mph /  6.4km/h 13% 0.00in /  0mm 65.0 W/m2
18:01 84.9 °F /  29.4 °C 28.6 °F /  -1.9 °C 30.13in /  1020.2hPa WSW 2.0mph /  3.2km/h 3.0mph /  4.8km/h 13% 0.00in /  0mm 51.0 W/m2
18:07 84.4 °F /  29.1 °C 30.0 °F /  -1.1 °C 30.13in /  1020.2hPa NNW 2.9mph /  4.7km/h 5.0mph /  8km/h 14% 0.00in /  0mm 39.0 W/m2
18:13 83.7 °F /  28.7 °C 29.5 °F /  -1.4 °C 30.13in /  1020.2hPa Calm   2.0mph /  3.2km/h 14% 0.00in /  0mm 30.0 W/m2
18:20 83.1 °F /  28.4 °C 28.9 °F /  -1.7 °C 30.14in /  1020.5hPa Calm   1.0mph /  1.6km/h 14% 0.00in /  0mm 23.0 W/m2
18:26 82.8 °F /  28.2 °C 28.8 °F /  -1.8 °C 30.14in /  1020.5hPa NNW 0.9mph /  1.4km/h 4.0mph /  6.4km/h 14% 0.00in /  0mm 18.0 W/m2
18:32 82.0 °F /  27.8 °C 29.8 °F /  -1.2 °C 30.14in /  1020.5hPa Calm     15% 0.00in /  0mm 12.0 W/m2
18:38 81.7 °F /  27.6 °C 31.1 °F /  -0.5 °C 30.14in /  1020.5hPa Calm     16% 0.00in /  0mm 7.0 W/m2
18:44 81.1 °F /  27.3 °C 30.7 °F /  -0.7 °C 30.14in /  1020.5hPa Calm     16% 0.00in /  0mm 0.0 W/m2
18:50 80.4 °F /  26.9 °C 30.2 °F /  -1 °C 30.14in /  1020.5hPa Calm     16% 0.00in /  0mm 0.0 W/m2
18:56 79.9 °F /  26.6 °C 29.7 °F /  -1.3 °C 30.14in /  1020.5hPa Calm     16% 0.00in /  0mm 0.0 W/m2
19:02 79.3 °F /  26.3 °C 29.3 °F /  -1.5 °C 30.15in /  1020.9hPa Calm     16% 0.00in /  0mm 0.0 W/m2
19:09 78.6 °F /  25.9 °C 31.6 °F /  -0.2 °C 30.15in /  1020.9hPa Calm     18% 0.00in /  0mm 0.0 W/m2
19:15 78.3 °F /  25.7 °C 29.8 °F /  -1.2 °C 30.15in /  1020.9hPa Calm     17% 0.00in /  0mm 0.0 W/m2
19:21 77.5 °F /  25.3 °C 30.7 °F /  -0.7 °C 30.16in /  1021.2hPa Calm     18% 0.00in /  0mm 0.0 W/m2
19:27 77.2 °F /  25.1 °C 30.4 °F /  -0.9 °C 30.16in /  1021.2hPa Calm     18% 0.00in /  0mm 0.0 W/m2
19:33 76.8 °F /  24.9 °C 31.5 °F /  -0.3 °C 30.16in /  1021.2hPa Calm     19% 0.00in /  0mm 0.0 W/m2
19:39 76.5 °F /  24.7 °C 31.1 °F /  -0.5 °C 30.17in /  1021.6hPa Calm     19% 0.00in /  0mm 0.0 W/m2
19:45 76.3 °F /  24.6 °C 30.9 °F /  -0.6 °C 30.17in /  1021.6hPa Calm     19% 0.00in /  0mm 0.0 W/m2
19:52 75.9 °F /  24.4 °C 32.0 °F /  0 °C 30.17in /  1021.6hPa Calm     20% 0.00in /  0mm 0.0 W/m2
19:58 75.7 °F /  24.3 °C 31.8 °F /  -0.1 °C 30.17in /  1021.6hPa Calm     20% 0.00in /  0mm 0.0 W/m2
20:04 75.6 °F /  24.2 °C 31.6 °F /  -0.2 °C 30.17in /  1021.6hPa Calm     20% 0.00in /  0mm 0.0 W/m2
20:10 75.4 °F /  24.1 °C 31.5 °F /  -0.3 °C 30.18in /  1021.9hPa Calm     20% 0.00in /  0mm 0.0 W/m2
20:16 75.0 °F /  23.9 °C 32.4 °F /  0.2 °C 30.18in /  1021.9hPa Calm     21% 0.00in /  0mm 0.0 W/m2
20:22 74.8 °F /  23.8 °C 31.1 °F /  -0.5 °C 30.18in /  1021.9hPa Calm     20% 0.00in /  0mm 0.0 W/m2
20:28 74.7 °F /  23.7 °C 30.9 °F /  -0.6 °C 30.19in /  1022.2hPa Calm     20% 0.00in /  0mm 0.0 W/m2
20:34 74.7 °F /  23.7 °C 32.2 °F /  0.1 °C 30.19in /  1022.2hPa Calm     21% 0.00in /  0mm 0.0 W/m2
20:41 74.7 °F /  23.7 °C 30.9 °F /  -0.6 °C 30.19in /  1022.2hPa Calm     20% 0.00in /  0mm 0.0 W/m2
20:47 74.5 °F /  23.6 °C 30.7 °F /  -0.7 °C 30.19in /  1022.2hPa Calm     20% 0.00in /  0mm 0.0 W/m2
20:53 74.5 °F /  23.6 °C 30.7 °F /  -0.7 °C 30.19in /  1022.2hPa Calm     20% 0.00in /  0mm 0.0 W/m2
20:59 74.5 °F /  23.6 °C 30.7 °F /  -0.7 °C 30.19in /  1022.2hPa Calm     20% 0.00in /  0mm 0.0 W/m2
21:05 74.5 °F /  23.6 °C 30.7 °F /  -0.7 °C 30.20in /  1022.6hPa Calm     20% 0.00in /  0mm 0.0 W/m2
21:11 74.5 °F /  23.6 °C 30.7 °F /  -0.7 °C 30.20in /  1022.6hPa Calm     20% 0.00in /  0mm 0.0 W/m2
21:17 74.7 °F /  23.7 °C 30.9 °F /  -0.6 °C 30.20in /  1022.6hPa West 0.9mph /  1.4km/h 3.0mph /  4.8km/h 20% 0.00in /  0mm 0.0 W/m2
21:23 74.7 °F /  23.7 °C 30.9 °F /  -0.6 °C 30.20in /  1022.6hPa Calm   1.0mph /  1.6km/h 20% 0.00in /  0mm 0.0 W/m2
21:30 74.7 °F /  23.7 °C 30.9 °F /  -0.6 °C 30.21in /  1022.9hPa Calm   1.0mph /  1.6km/h 20% 0.00in /  0mm 0.0 W/m2
21:36 74.7 °F /  23.7 °C 30.9 °F /  -0.6 °C 30.21in /  1022.9hPa Calm     20% 0.00in /  0mm 0.0 W/m2
21:42 75.0 °F /  23.9 °C 31.3 °F /  -0.4 °C 30.21in /  1022.9hPa SSE 2.0mph /  3.2km/h 4.0mph /  6.4km/h 20% 0.00in /  0mm 0.0 W/m2
21:48 75.7 °F /  24.3 °C 30.6 °F /  -0.8 °C 30.21in /  1022.9hPa Calm   4.0mph /  6.4km/h 19% 0.00in /  0mm 0.0 W/m2
21:54 76.3 °F /  24.6 °C 29.7 °F /  -1.3 °C 30.22in /  1023.2hPa Calm   7.0mph /  11.3km/h 18% 0.00in /  0mm 0.0 W/m2
22:00 76.6 °F /  24.8 °C 27.1 °F /  -2.7 °C 30.21in /  1022.9hPa SSE 2.0mph /  3.2km/h 8.0mph /  12.9km/h 16% 0.00in /  0mm 0.0 W/m2
22:06 76.8 °F /  24.9 °C 25.7 °F /  -3.5 °C 30.22in /  1023.2hPa Calm   3.0mph /  4.8km/h 15% 0.00in /  0mm 0.0 W/m2
22:12 76.6 °F /  24.8 °C 25.5 °F /  -3.6 °C 30.22in /  1023.2hPa South 4.0mph /  6.4km/h 4.0mph /  6.4km/h 15% 0.00in /  0mm 0.0 W/m2
22:18 76.5 °F /  24.7 °C 23.7 °F /  -4.6 °C 30.21in /  1022.9hPa West 0.9mph /  1.4km/h 6.0mph /  9.7km/h 14% 0.00in /  0mm 0.0 W/m2
22:25 76.5 °F /  24.7 °C 21.9 °F /  -5.6 °C 30.22in /  1023.2hPa South 2.0mph /  3.2km/h 7.0mph /  11.3km/h 13% 0.00in /  0mm 0.0 W/m2
22:31 76.6 °F /  24.8 °C 22.1 °F /  -5.5 °C 30.22in /  1023.2hPa SSE 0.9mph /  1.4km/h 3.0mph /  4.8km/h 13% 0.00in /  0mm 0.0 W/m2
22:37 76.3 °F /  24.6 °C 21.7 °F /  -5.7 °C 30.22in /  1023.2hPa Calm   2.0mph /  3.2km/h 13% 0.00in /  0mm 0.0 W/m2
22:43 75.7 °F /  24.3 °C 19.6 °F /  -6.9 °C 30.22in /  1023.2hPa SW 0.9mph /  1.4km/h 7.0mph /  11.3km/h 12% 0.00in /  0mm 0.0 W/m2
22:49 75.6 °F /  24.2 °C 19.4 °F /  -7 °C 30.22in /  1023.2hPa South 0.9mph /  1.4km/h 7.0mph /  11.3km/h 12% 0.00in /  0mm 0.0 W/m2
22:55 75.4 °F /  24.1 °C 19.2 °F /  -7.1 °C 30.22in /  1023.2hPa Calm   2.0mph /  3.2km/h 12% 0.00in /  0mm 0.0 W/m2
23:01 75.0 °F /  23.9 °C 19.0 °F /  -7.2 °C 30.22in /  1023.2hPa Calm   5.0mph /  8km/h 12% 0.00in /  0mm 0.0 W/m2
23:08 74.8 °F /  23.8 °C 18.9 °F /  -7.3 °C 30.22in /  1023.2hPa SSE 0.9mph /  1.4km/h 3.0mph /  4.8km/h 12% 0.00in /  0mm 0.0 W/m2
23:14 74.5 °F /  23.6 °C 20.5 °F /  -6.4 °C 30.22in /  1023.2hPa Calm   1.0mph /  1.6km/h 13% 0.00in /  0mm 0.0 W/m2
23:20 73.9 °F /  23.3 °C 19.9 °F /  -6.7 °C 30.22in /  1023.2hPa Calm   1.0mph /  1.6km/h 13% 0.00in /  0mm 0.0 W/m2
23:26 73.6 °F /  23.1 °C 19.8 °F /  -6.8 °C 30.22in /  1023.2hPa Calm   4.0mph /  6.4km/h 13% 0.00in /  0mm 0.0 W/m2
23:32 73.2 °F /  22.9 °C 19.4 °F /  -7 °C 30.22in /  1023.2hPa Calm   3.0mph /  4.8km/h 13% 0.00in /  0mm 0.0 W/m2
23:38 72.9 °F /  22.7 °C 19.2 °F /  -7.1 °C 30.22in /  1023.2hPa Calm   1.0mph /  1.6km/h 13% 0.00in /  0mm 0.0 W/m2
23:44 72.7 °F /  22.6 °C 19.0 °F /  -7.2 °C 30.22in /  1023.2hPa SE 0.9mph /  1.4km/h 5.0mph /  8km/h 13% 0.00in /  0mm 0.0 W/m2
23:50 72.7 °F /  22.6 °C 17.1 °F /  -8.3 °C 30.22in /  1023.2hPa Calm   3.0mph /  4.8km/h 12% 0.00in /  0mm 0.0 W/m2
23:57 72.7 °F /  22.6 °C 17.1 °F /  -8.3 °C 30.22in /  1023.2hPa Calm   1.0mph /  1.6km/h 12% 0.00in /  0mm 0.0 W/m2
Olympia, Windhoek, Namibia
Compliments of Weather Underground - 3 mb